createdAt,value
2023-03-12T00:01:21.891Z,10.65
2023-03-12T00:03:25.252Z,10.25
2023-03-12T00:05:27.966Z,10.60
2023-03-12T00:07:30.406Z,10.35
2023-03-12T00:09:36.008Z,9.93
2023-03-12T00:11:38.367Z,10.35
2023-03-12T00:13:40.967Z,10.55
2023-03-12T00:15:43.397Z,9.35
2023-03-12T00:17:45.725Z,9.15
2023-03-12T00:19:52.966Z,9.15
2023-03-12T00:21:55.486Z,8.38
2023-03-12T00:23:58.253Z,8.23
2023-03-12T00:26:03.012Z,7.35
2023-03-12T00:28:05.650Z,8.40
2023-03-12T00:30:09.245Z,7.93
2023-03-12T00:32:11.658Z,7.20
2023-03-12T00:34:14.339Z,7.47
2023-03-12T00:36:18.179Z,7.57
2023-03-12T00:38:20.482Z,7.43
2023-03-12T00:40:22.791Z,6.88
2023-03-12T00:42:25.087Z,6.63
2023-03-12T00:44:28.000Z,6.38
2023-03-12T00:46:30.466Z,6.78
2023-03-12T00:48:32.881Z,6.05
2023-03-12T00:50:35.491Z,6.68
2023-03-12T00:52:37.925Z,6.07
2023-03-12T00:54:40.648Z,6.57
2023-03-12T00:56:43.044Z,6.82
2023-03-12T00:58:46.694Z,6.30
2023-03-12T01:00:49.232Z,6.45
2023-03-12T01:02:51.559Z,5.82
2023-03-12T01:04:53.930Z,5.93
2023-03-12T01:06:56.642Z,5.65
2023-03-12T01:08:59.051Z,6.18
2023-03-12T01:11:03.527Z,5.13
2023-03-12T01:13:05.885Z,6.07
2023-03-12T01:15:09.298Z,5.97
2023-03-12T01:17:11.573Z,5.80
2023-03-12T01:19:13.865Z,5.68
2023-03-12T01:21:16.332Z,5.85
2023-03-12T01:23:19.013Z,6.35
2023-03-12T01:25:23.087Z,4.97
2023-03-12T01:27:25.646Z,5.70
2023-03-12T01:29:28.173Z,4.90
2023-03-12T01:31:30.555Z,5.40
2023-03-12T01:33:33.103Z,4.78
2023-03-12T01:35:39.818Z,5.20
2023-03-12T01:37:42.242Z,4.78
2023-03-12T01:39:44.648Z,5.00
2023-03-12T01:41:47.049Z,4.90
2023-03-12T01:43:49.611Z,5.43
2023-03-12T01:45:58.214Z,5.72
2023-03-12T01:48:00.647Z,5.15
2023-03-12T01:50:04.844Z,5.88
2023-03-12T01:52:09.543Z,5.63
2023-03-12T01:54:20.925Z,5.00
2023-03-12T01:56:27.361Z,4.82
2023-03-12T01:58:34.249Z,5.60
2023-03-12T02:00:36.655Z,4.25
2023-03-12T02:02:40.645Z,5.35
2023-03-12T02:04:45.445Z,3.85
2023-03-12T02:06:57.479Z,4.72
2023-03-12T02:09:02.279Z,4.60
2023-03-12T02:11:04.886Z,4.50
2023-03-12T02:13:08.124Z,3.97
2023-03-12T02:15:12.140Z,4.45
2023-03-12T02:17:14.840Z,4.43
2023-03-12T02:19:27.482Z,3.92
2023-03-12T02:21:34.088Z,4.95
2023-03-12T02:23:46.176Z,4.65
2023-03-12T02:25:52.171Z,4.78
2023-03-12T02:27:56.846Z,4.53
2023-03-12T02:30:00.250Z,4.53
2023-03-12T02:32:05.158Z,4.43
2023-03-12T02:34:07.641Z,3.95
2023-03-12T02:36:10.394Z,4.60
2023-03-12T02:38:19.045Z,4.18
2023-03-12T02:40:29.726Z,4.88
2023-03-12T02:42:32.601Z,3.67
2023-03-12T02:44:36.969Z,4.35
2023-03-12T02:46:44.167Z,3.88
2023-03-12T02:48:46.683Z,4.07
2023-03-12T02:50:49.126Z,3.88
2023-03-12T02:52:51.482Z,4.28
2023-03-12T02:54:54.079Z,3.55
2023-03-12T02:56:57.457Z,3.63
2023-03-12T02:59:02.579Z,3.75
2023-03-12T03:01:06.584Z,3.60
2023-03-12T03:03:09.243Z,3.50
2023-03-12T03:05:12.815Z,3.08
2023-03-12T03:07:15.322Z,4.68
2023-03-12T03:09:18.089Z,3.90
2023-03-12T03:11:24.602Z,3.25
2023-03-12T03:13:27.045Z,2.80
2023-03-12T03:15:30.114Z,3.42
2023-03-12T03:17:32.640Z,3.10
2023-03-12T03:19:35.056Z,3.80
2023-03-12T03:21:37.976Z,3.33
2023-03-12T03:23:40.413Z,3.35
2023-03-12T03:25:43.047Z,3.25
2023-03-12T03:27:45.486Z,3.65
2023-03-12T03:31:50.401Z,4.20
2023-03-12T03:33:52.812Z,5.50
2023-03-12T03:35:56.678Z,2.90
2023-03-12T03:37:59.206Z,3.47
2023-03-12T03:40:01.609Z,2.75
2023-03-12T03:42:04.020Z,3.45
2023-03-12T03:44:08.286Z,3.30
2023-03-12T03:46:12.326Z,3.17
2023-03-12T03:48:15.362Z,3.67
2023-03-12T03:50:17.926Z,3.85
2023-03-12T03:52:20.324Z,4.15
2023-03-12T03:54:22.601Z,2.95
2023-03-12T03:56:25.122Z,3.20
2023-03-12T03:58:27.561Z,3.63
2023-03-12T04:00:29.889Z,3.47
2023-03-12T04:02:32.341Z,2.72
2023-03-12T04:04:34.730Z,3.40
2023-03-12T04:06:37.411Z,4.03
2023-03-12T04:08:40.642Z,3.20
2023-03-12T04:10:43.133Z,3.25
2023-03-12T04:12:45.447Z,3.55
2023-03-12T04:14:47.720Z,3.20
2023-03-12T04:16:50.177Z,2.75
2023-03-12T04:18:52.519Z,2.85
2023-03-12T04:20:55.467Z,3.58
2023-03-12T04:22:59.009Z,4.30
2023-03-12T04:25:01.923Z,2.65
2023-03-12T04:27:04.641Z,2.95
2023-03-12T04:29:07.689Z,3.28
2023-03-12T04:31:12.842Z,3.58
2023-03-12T04:33:15.254Z,3.33
2023-03-12T04:35:17.735Z,2.65
2023-03-12T04:37:20.039Z,5.15
2023-03-12T04:39:22.375Z,3.55
2023-03-12T04:41:25.081Z,4.07
2023-03-12T04:43:29.285Z,3.75
2023-03-12T04:45:31.725Z,2.97
2023-03-12T04:47:34.648Z,3.05
2023-03-12T04:49:39.852Z,3.70
2023-03-12T04:51:42.335Z,4.25
2023-03-12T04:53:44.783Z,3.42
2023-03-12T04:55:47.320Z,3.92
2023-03-12T04:57:49.930Z,4.55
2023-03-12T04:59:52.687Z,4.75
2023-03-12T05:01:55.213Z,4.07
2023-03-12T05:03:57.789Z,4.55
2023-03-12T05:06:00.352Z,3.47
2023-03-12T05:08:04.109Z,4.75
2023-03-12T05:10:07.649Z,3.72
2023-03-12T05:12:11.343Z,4.18
2023-03-12T05:14:13.776Z,4.50
2023-03-12T05:16:16.842Z,4.38
2023-03-12T05:18:20.890Z,3.40
2023-03-12T05:20:23.330Z,4.85
2023-03-12T05:22:25.648Z,4.72
2023-03-12T05:24:29.568Z,5.20
2023-03-12T05:26:33.621Z,4.43
2023-03-12T05:28:36.135Z,3.88
2023-03-12T05:30:40.256Z,4.00
2023-03-12T05:32:42.789Z,4.20
2023-03-12T05:34:45.295Z,3.10
2023-03-12T05:36:47.681Z,4.28
2023-03-12T05:38:49.969Z,5.35
2023-03-12T05:40:55.698Z,4.53
2023-03-12T05:42:58.185Z,4.32
2023-03-12T05:45:00.941Z,4.78
2023-03-12T05:47:03.385Z,3.75
2023-03-12T05:49:05.734Z,4.15
2023-03-12T05:51:08.465Z,4.28
2023-03-12T05:53:11.500Z,4.55
2023-03-12T05:55:14.245Z,4.57
2023-03-12T05:57:16.581Z,3.95
2023-03-12T05:59:19.052Z,6.72
2023-03-12T06:01:25.606Z,5.38
2023-03-12T06:03:28.288Z,4.93
2023-03-12T06:05:31.722Z,5.25
2023-03-12T06:07:34.129Z,4.50
2023-03-12T06:09:36.807Z,5.07
2023-03-12T06:11:39.380Z,6.07
2023-03-12T06:13:42.249Z,4.53
2023-03-12T06:15:45.288Z,4.22
2023-03-12T06:17:47.737Z,5.00
2023-03-12T06:19:53.163Z,3.72
2023-03-12T06:21:55.560Z,5.18
2023-03-12T06:23:58.561Z,4.63
2023-03-12T06:26:00.928Z,4.72
2023-03-12T06:28:03.362Z,4.22
2023-03-12T06:30:06.608Z,4.60
2023-03-12T06:32:09.444Z,3.38
2023-03-12T06:34:11.801Z,4.55
2023-03-12T06:36:15.841Z,4.80
2023-03-12T06:38:18.280Z,5.85
2023-03-12T06:40:20.890Z,4.90
2023-03-12T06:42:23.246Z,5.68
2023-03-12T06:44:25.929Z,5.10
2023-03-12T06:46:28.385Z,4.43
2023-03-12T06:48:34.441Z,5.22
2023-03-12T06:50:36.841Z,5.10
2023-03-12T06:52:40.856Z,5.20
2023-03-12T06:54:43.358Z,5.00
2023-03-12T06:56:46.382Z,4.93
2023-03-12T06:58:49.440Z,5.40
2023-03-12T07:00:53.289Z,4.55
2023-03-12T07:02:55.642Z,3.83
2023-03-12T07:04:58.355Z,5.40
2023-03-12T07:07:00.809Z,4.35
2023-03-12T07:09:03.476Z,4.30
2023-03-12T07:11:05.781Z,4.85
2023-03-12T07:13:08.376Z,5.50
2023-03-12T07:15:11.497Z,5.03
2023-03-12T07:17:13.967Z,5.07
2023-03-12T07:19:16.575Z,4.18
2023-03-12T07:21:23.056Z,5.22
2023-03-12T07:23:25.455Z,4.55
2023-03-12T07:25:27.818Z,4.82
2023-03-12T07:27:30.411Z,4.60
2023-03-12T07:29:32.653Z,4.38
2023-03-12T07:31:35.122Z,5.45
2023-03-12T07:33:37.942Z,5.68
2023-03-12T07:35:40.810Z,4.43
2023-03-12T07:37:43.218Z,4.70
2023-03-12T07:39:45.664Z,3.45
2023-03-12T07:41:48.299Z,5.38
2023-03-12T07:43:50.771Z,4.93
2023-03-12T07:45:53.409Z,5.03
2023-03-12T07:47:55.927Z,4.65
2023-03-12T07:49:58.668Z,4.40
2023-03-12T07:52:01.301Z,3.75
2023-03-12T07:54:03.649Z,4.82
2023-03-12T07:56:06.729Z,5.05
2023-03-12T07:58:09.379Z,4.90
2023-03-12T08:00:12.927Z,5.00
2023-03-12T08:02:15.592Z,4.18
2023-03-12T08:04:18.114Z,4.07
2023-03-12T08:06:21.470Z,4.15
2023-03-12T08:08:23.790Z,4.45
2023-03-12T08:10:26.518Z,4.07
2023-03-12T08:12:29.174Z,4.45
2023-03-12T08:14:32.490Z,4.13
2023-03-12T08:16:35.063Z,3.97
2023-03-12T08:18:37.936Z,4.80
2023-03-12T08:20:40.402Z,3.72
2023-03-12T08:22:42.592Z,4.35
2023-03-12T08:24:44.767Z,3.72
2023-03-12T08:26:47.164Z,4.10
2023-03-12T08:28:49.297Z,4.78
2023-03-12T08:30:54.111Z,3.38
2023-03-12T08:32:56.368Z,3.85
2023-03-12T08:34:58.776Z,3.95
2023-03-12T08:37:01.681Z,3.88
2023-03-12T08:39:04.863Z,4.95
2023-03-12T08:41:07.225Z,5.40
2023-03-12T08:43:09.579Z,4.35
2023-03-12T08:45:13.068Z,3.65
2023-03-12T08:47:15.319Z,4.30
2023-03-12T08:49:18.124Z,4.47
2023-03-12T08:51:20.358Z,4.55
2023-03-12T08:53:22.940Z,2.97
2023-03-12T08:55:26.469Z,4.47
2023-03-12T08:57:29.388Z,4.53
2023-03-12T08:59:31.568Z,5.40
2023-03-12T09:01:33.940Z,4.65
2023-03-12T09:03:36.182Z,4.30
2023-03-12T09:05:38.444Z,4.75
2023-03-12T09:07:41.593Z,4.30
2023-03-12T09:09:43.791Z,3.55
2023-03-12T09:11:45.995Z,3.20
2023-03-12T09:14:16.855Z,3.72
2023-03-12T09:16:10.359Z,3.90
2023-03-12T09:18:12.677Z,4.30
2023-03-12T09:20:15.088Z,4.45
2023-03-12T09:22:17.647Z,4.63
2023-03-12T09:24:20.505Z,4.13
2023-03-12T09:26:22.747Z,3.45
2023-03-12T09:28:25.002Z,4.72
2023-03-12T09:30:30.377Z,3.55
2023-03-12T09:32:32.838Z,3.78
2023-03-12T09:34:36.045Z,3.70
2023-03-12T09:36:38.393Z,4.30
2023-03-12T09:38:40.750Z,4.93
2023-03-12T09:40:47.895Z,4.10
2023-03-12T09:42:52.765Z,5.00
2023-03-12T09:44:57.830Z,4.80
2023-03-12T09:47:08.518Z,3.25
2023-03-12T09:49:20.031Z,3.65
2023-03-12T09:51:28.454Z,3.67
2023-03-12T09:53:37.954Z,3.30
2023-03-12T09:55:43.749Z,3.13
2023-03-12T09:57:47.557Z,3.60
2023-03-12T09:59:51.280Z,3.30
2023-03-12T10:01:58.804Z,3.15
2023-03-12T10:04:07.228Z,4.07
2023-03-12T10:06:10.514Z,3.42
2023-03-12T10:08:25.186Z,3.20
2023-03-12T10:10:36.913Z,4.05
2023-03-12T10:12:48.109Z,4.78
2023-03-12T10:15:00.561Z,4.38
2023-03-12T10:17:09.149Z,4.10
2023-03-12T10:19:28.417Z,3.03
2023-03-12T10:21:31.315Z,5.65
2023-03-12T10:23:39.815Z,2.88
2023-03-12T10:25:48.898Z,3.75
2023-03-12T10:27:51.229Z,3.83
2023-03-12T10:29:55.259Z,4.07
2023-03-12T10:32:03.065Z,3.40
2023-03-12T10:34:17.687Z,3.55
2023-03-12T10:36:25.449Z,3.13
2023-03-12T10:38:30.325Z,4.93
2023-03-12T10:40:35.043Z,3.00
2023-03-12T10:42:37.479Z,3.95
2023-03-12T10:44:40.529Z,4.32
2023-03-12T10:46:51.813Z,3.30
2023-03-12T10:49:17.055Z,3.40
2023-03-12T10:51:19.368Z,3.60
2023-03-12T10:53:22.802Z,3.83
2023-03-12T10:55:29.656Z,3.95
2023-03-12T10:57:41.044Z,4.93
2023-03-12T10:59:46.349Z,3.15
2023-03-12T11:01:52.084Z,3.20
2023-03-12T11:04:10.897Z,2.92
2023-03-12T11:06:19.409Z,3.92
2023-03-12T11:08:27.300Z,4.13
2023-03-12T11:10:33.990Z,3.00
2023-03-12T11:12:40.038Z,4.20
2023-03-12T11:14:47.232Z,3.28
2023-03-12T11:16:51.232Z,3.15
2023-03-12T11:18:57.760Z,2.85
2023-03-12T11:21:06.298Z,3.20
2023-03-12T11:23:15.659Z,4.60
2023-03-12T11:25:24.134Z,3.03
2023-03-12T11:27:35.103Z,4.65
2023-03-12T11:29:43.778Z,3.45
2023-03-12T11:31:54.354Z,3.90
2023-03-12T11:34:03.404Z,3.63
2023-03-12T11:36:20.929Z,3.67
2023-03-12T11:38:31.568Z,3.00
2023-03-12T11:42:42.668Z,3.17
2023-03-12T11:44:46.873Z,3.30
2023-03-12T11:46:53.586Z,4.00
2023-03-12T11:48:59.300Z,2.97
2023-03-12T11:51:14.109Z,3.10
2023-03-12T11:53:20.928Z,2.60
2023-03-12T11:55:27.636Z,2.70
2023-03-12T11:57:33.231Z,2.97
2023-03-12T11:59:43.860Z,3.03
2023-03-12T12:01:52.316Z,3.25
2023-03-12T12:03:59.117Z,3.65
2023-03-12T12:06:06.721Z,3.47
2023-03-12T12:08:13.367Z,3.38
2023-03-12T12:10:21.788Z,3.15
2023-03-12T12:12:28.544Z,3.75
2023-03-12T12:14:33.597Z,3.53
2023-03-12T12:16:46.456Z,3.33
2023-03-12T12:18:52.073Z,2.67
2023-03-12T12:20:57.724Z,4.15
2023-03-12T12:23:01.818Z,3.72
2023-03-12T12:25:09.059Z,2.92
2023-03-12T12:27:17.505Z,3.90
2023-03-12T12:29:26.511Z,3.22
2023-03-12T12:31:32.258Z,4.15
2023-03-12T12:33:40.600Z,4.63
2023-03-12T12:35:43.999Z,3.15
2023-03-12T12:37:52.158Z,3.30
2023-03-12T12:40:08.933Z,4.22
2023-03-12T12:42:18.564Z,4.28
2023-03-12T12:44:28.242Z,2.90
2023-03-12T12:46:34.788Z,3.13
2023-03-12T12:48:40.695Z,3.95
2023-03-12T12:50:44.510Z,2.92
2023-03-12T12:52:53.835Z,3.10
2023-03-12T12:55:03.815Z,4.03
2023-03-12T12:57:13.966Z,5.27
2023-03-12T12:59:21.645Z,3.63
2023-03-12T13:01:27.225Z,2.30
2023-03-12T13:03:31.077Z,3.47
2023-03-12T13:05:46.262Z,3.35
2023-03-12T13:07:48.626Z,3.55
2023-03-12T13:09:53.715Z,2.97
2023-03-12T13:11:56.270Z,3.17
2023-03-12T13:14:02.942Z,3.17
2023-03-12T13:16:11.634Z,3.63
2023-03-12T13:18:20.160Z,2.78
2023-03-12T13:20:28.548Z,2.20
2023-03-12T13:22:31.443Z,2.90
2023-03-12T13:24:41.815Z,2.47
2023-03-12T13:26:50.336Z,2.45
2023-03-12T13:29:06.173Z,2.17
2023-03-12T13:31:15.686Z,2.85
2023-03-12T13:33:21.969Z,2.70
2023-03-12T13:35:24.965Z,3.13
2023-03-12T13:37:48.071Z,3.45
2023-03-12T13:39:51.505Z,2.90
2023-03-12T13:41:57.464Z,3.20
2023-03-12T13:44:00.529Z,3.55
2023-03-12T13:46:10.642Z,3.28
2023-03-12T13:48:18.532Z,3.70
2023-03-12T13:50:20.995Z,3.50
2023-03-12T13:52:25.349Z,3.30
2023-03-12T13:54:34.619Z,3.25
2023-03-12T13:56:37.504Z,3.45
2023-03-12T13:58:47.540Z,3.47
2023-03-12T14:00:56.179Z,3.05
2023-03-12T14:03:03.921Z,3.08
2023-03-12T14:05:11.624Z,2.97
2023-03-12T14:07:18.404Z,2.55
2023-03-12T14:09:31.855Z,2.75
2023-03-12T14:11:44.294Z,3.13
2023-03-12T14:13:51.122Z,2.35
2023-03-12T14:16:01.379Z,3.60
2023-03-12T14:18:14.533Z,2.50
2023-03-12T14:20:21.817Z,2.25
2023-03-12T14:22:25.481Z,2.67
2023-03-12T14:24:36.254Z,2.75
2023-03-12T14:28:42.478Z,2.40
2023-03-12T14:30:50.366Z,1.77
2023-03-12T14:32:56.768Z,1.45
2023-03-12T14:35:05.304Z,1.85
2023-03-12T14:37:16.695Z,1.55
2023-03-12T14:39:22.398Z,1.40
2023-03-12T14:41:32.166Z,0.85
2023-03-12T14:43:35.878Z,1.10
2023-03-12T14:45:41.320Z,1.05
2023-03-12T14:47:45.726Z,0.70
2023-03-12T14:49:48.036Z,1.17
2023-03-12T14:51:50.444Z,1.33
2023-03-12T14:53:53.658Z,1.50
2023-03-12T14:56:02.292Z,0.80
2023-03-12T14:58:07.309Z,1.35
2023-03-12T15:00:24.873Z,1.50
2023-03-12T15:02:30.609Z,1.60
2023-03-12T15:04:38.302Z,2.65
2023-03-12T15:06:46.553Z,2.20
2023-03-12T15:08:49.354Z,2.30
2023-03-12T15:10:56.122Z,1.92
2023-03-12T15:13:01.047Z,1.73
2023-03-12T15:15:09.955Z,1.50
2023-03-12T15:17:18.121Z,1.77
2023-03-12T15:19:27.050Z,2.78
2023-03-12T15:21:29.326Z,2.03
2023-03-12T15:23:35.424Z,1.90
2023-03-12T15:25:38.908Z,2.10
2023-03-12T15:27:41.090Z,2.17
2023-03-12T15:29:43.453Z,2.38
2023-03-12T15:31:48.452Z,1.83
2023-03-12T15:33:57.418Z,2.03
2023-03-12T15:36:04.874Z,2.55
2023-03-12T15:38:15.242Z,3.15
2023-03-12T15:40:22.541Z,2.65
2023-03-12T15:42:27.355Z,2.20
2023-03-12T15:44:44.676Z,2.60
2023-03-12T15:46:49.782Z,3.08
2023-03-12T15:48:55.395Z,2.00
2023-03-12T15:50:58.525Z,2.08
2023-03-12T15:53:06.473Z,1.67
2023-03-12T15:55:13.253Z,1.75
2023-03-12T15:57:20.865Z,1.20
2023-03-12T15:59:27.106Z,0.90
2023-03-12T16:01:29.599Z,0.88
2023-03-12T16:03:31.899Z,1.08
2023-03-12T16:05:37.725Z,0.90
2023-03-12T16:07:40.133Z,0.90
2023-03-12T16:09:42.604Z,1.17
2023-03-12T16:11:45.029Z,0.73
2023-03-12T16:13:50.165Z,1.17
2023-03-12T16:15:52.772Z,0.95
2023-03-12T16:17:54.970Z,1.30
2023-03-12T16:19:57.323Z,1.00
2023-03-12T16:22:00.540Z,1.20
2023-03-12T16:24:03.239Z,0.90
2023-03-12T16:26:07.483Z,0.98
2023-03-12T16:28:14.912Z,0.65
2023-03-12T16:30:23.078Z,0.80
2023-03-12T16:32:25.340Z,1.75
2023-03-12T16:34:28.489Z,1.45
2023-03-12T16:36:30.762Z,1.50
2023-03-12T16:38:33.156Z,1.80
2023-03-12T16:40:38.669Z,1.48
2023-03-12T16:42:44.991Z,1.00
2023-03-12T16:44:47.705Z,1.40
2023-03-12T16:46:49.954Z,1.38
2023-03-12T16:48:54.122Z,2.40
2023-03-12T16:50:58.929Z,1.73
2023-03-12T16:53:04.546Z,1.20
2023-03-12T16:55:07.579Z,2.10
2023-03-12T16:57:18.789Z,2.05
2023-03-12T16:59:26.288Z,1.30
2023-03-12T17:01:29.498Z,1.42
2023-03-12T17:03:37.424Z,1.27
2023-03-12T17:05:41.064Z,2.45
2023-03-12T17:07:43.252Z,1.80
2023-03-12T17:09:45.492Z,1.38
2023-03-12T17:11:50.748Z,1.90
2023-03-12T17:13:58.701Z,1.33
2023-03-12T17:16:01.238Z,2.10
2023-03-12T17:18:04.704Z,1.25
2023-03-12T17:20:10.612Z,1.73
2023-03-12T17:22:13.109Z,1.40
2023-03-12T17:24:15.720Z,1.63
2023-03-12T17:26:18.824Z,1.85
2023-03-12T17:28:21.095Z,1.70
2023-03-12T17:30:24.653Z,1.77
2023-03-12T17:32:26.970Z,1.73
2023-03-12T17:34:30.307Z,1.00
2023-03-12T17:36:32.774Z,1.08
2023-03-12T17:38:35.278Z,0.90
2023-03-12T17:40:41.617Z,1.10
2023-03-12T17:42:44.019Z,1.25
2023-03-12T17:44:46.556Z,0.95
2023-03-12T17:46:58.781Z,0.82
2023-03-12T17:49:01.796Z,1.77
2023-03-12T17:51:08.213Z,0.75
2023-03-12T17:53:10.770Z,1.10
2023-03-12T17:55:13.197Z,1.13
2023-03-12T17:57:15.357Z,0.88
2023-03-12T17:59:18.430Z,1.90
2023-03-12T18:01:20.768Z,1.60
2023-03-12T18:03:23.175Z,1.08
2023-03-12T18:05:25.820Z,1.17
2023-03-12T18:07:28.160Z,0.63
2023-03-12T18:09:30.592Z,1.20
2023-03-12T18:11:32.818Z,1.42
2023-03-12T18:13:35.315Z,1.55
2023-03-12T18:15:37.789Z,1.40
2023-03-12T18:17:40.893Z,1.08
2023-03-12T18:19:43.177Z,1.58
2023-03-12T18:21:45.522Z,1.40
2023-03-12T18:23:47.911Z,1.98
2023-03-12T18:25:50.130Z,1.73
2023-03-12T18:27:53.677Z,2.53
2023-03-12T18:29:56.667Z,2.15
2023-03-12T18:31:58.964Z,2.53
2023-03-12T18:34:01.163Z,1.90
2023-03-12T18:36:04.188Z,1.83
2023-03-12T18:38:06.452Z,3.05
2023-03-12T18:40:10.324Z,2.28
2023-03-12T18:42:12.536Z,1.70
2023-03-12T18:44:14.712Z,2.40
2023-03-12T18:46:17.311Z,2.75
2023-03-12T18:48:19.499Z,1.80
2023-03-12T18:50:21.970Z,2.22
2023-03-12T18:52:24.259Z,1.77
2023-03-12T18:54:27.569Z,2.08
2023-03-12T18:56:30.126Z,2.28
2023-03-12T18:58:32.490Z,2.05
2023-03-12T19:00:34.792Z,2.33
2023-03-12T19:02:38.166Z,2.30
2023-03-12T19:04:45.324Z,2.30
2023-03-12T19:06:51.455Z,1.95
2023-03-12T19:08:54.256Z,2.72
2023-03-12T19:10:56.727Z,3.42
2023-03-12T19:12:59.257Z,2.58
2023-03-12T19:15:01.743Z,2.08
2023-03-12T19:17:04.412Z,3.17
2023-03-12T19:19:06.717Z,2.60
2023-03-12T19:21:09.113Z,2.90
2023-03-12T19:23:11.320Z,3.47
2023-03-12T19:25:14.189Z,2.60
2023-03-12T19:27:16.429Z,2.30
2023-03-12T19:29:18.715Z,2.90
2023-03-12T19:31:21.103Z,3.92
2023-03-12T19:33:23.684Z,3.65
2023-03-12T19:35:26.010Z,3.47
2023-03-12T19:37:28.892Z,2.22
2023-03-12T19:39:31.081Z,2.30
2023-03-12T19:41:33.478Z,3.35
2023-03-12T19:43:36.762Z,4.03
2023-03-12T19:45:39.113Z,2.83
2023-03-12T19:47:41.799Z,2.67
2023-03-12T19:49:44.328Z,4.07
2023-03-12T19:51:46.556Z,4.10
2023-03-12T19:53:48.850Z,3.25
2023-03-12T19:55:51.357Z,3.40
2023-03-12T19:57:54.467Z,3.38
2023-03-12T19:59:56.873Z,4.80
2023-03-12T20:02:01.840Z,4.85
2023-03-12T20:04:08.158Z,4.20
2023-03-12T20:06:11.556Z,3.42
2023-03-12T20:08:14.178Z,4.32
2023-03-12T20:10:16.688Z,4.82
2023-03-12T20:12:19.068Z,3.72
2023-03-12T20:14:21.503Z,4.35
2023-03-12T20:16:23.936Z,3.40
2023-03-12T20:18:26.141Z,3.45
2023-03-12T20:20:28.334Z,3.70
2023-03-12T20:22:31.387Z,3.03
2023-03-12T20:24:33.613Z,3.25
2023-03-12T20:26:39.638Z,2.70
2023-03-12T20:28:42.364Z,2.50
2023-03-12T20:30:44.628Z,2.08
2023-03-12T20:32:46.922Z,1.85
2023-03-12T20:34:49.320Z,1.80
2023-03-12T20:36:51.610Z,1.38
2023-03-12T20:38:53.879Z,1.50
2023-03-12T20:40:56.073Z,1.58
2023-03-12T20:42:58.428Z,0.95
2023-03-12T20:45:00.985Z,1.10
2023-03-12T20:47:03.253Z,0.82
2023-03-12T20:49:05.495Z,1.67
2023-03-12T20:51:07.895Z,0.90
2023-03-12T20:53:10.387Z,0.70
2023-03-12T20:55:12.672Z,0.50
2023-03-12T20:57:14.970Z,0.52
2023-03-12T20:59:17.333Z,1.08
2023-03-12T21:01:19.995Z,0.77
2023-03-12T21:03:23.100Z,0.40
2023-03-12T21:05:27.241Z,0.60
2023-03-12T21:07:29.637Z,0.40
2023-03-12T21:09:32.094Z,0.40
2023-03-12T21:11:34.664Z,0.30
2023-03-12T21:13:37.086Z,0.60
2023-03-12T21:15:39.204Z,0.30
2023-03-12T21:17:41.594Z,0.75
2023-03-12T21:19:44.196Z,0.30
2023-03-12T21:21:46.435Z,0.20
2023-03-12T21:23:48.740Z,0.25
2023-03-12T21:25:59.437Z,0.30
2023-03-12T21:28:02.479Z,0.35
2023-03-12T21:30:05.700Z,0.25
2023-03-12T21:32:08.095Z,0.20
2023-03-12T21:34:10.318Z,0.30
2023-03-12T21:36:14.675Z,0.30
2023-03-12T21:38:17.011Z,0.20
2023-03-12T21:40:19.454Z,0.20
2023-03-12T21:42:21.641Z,0.25
2023-03-12T21:44:23.934Z,0.20
2023-03-12T21:46:27.959Z,0.10
2023-03-12T21:48:30.260Z,0.20
2023-03-12T21:50:32.434Z,0.38
2023-03-12T21:52:41.490Z,0.10
2023-03-12T21:54:45.791Z,0.45
2023-03-12T21:56:48.009Z,0.30
2023-03-12T21:58:50.285Z,0.30
2023-03-12T22:00:52.816Z,0.20
2023-03-12T22:02:55.106Z,0.40
2023-03-12T22:05:00.311Z,0.25
2023-03-12T22:07:02.739Z,0.38
2023-03-12T22:09:05.079Z,0.30
2023-03-12T22:11:08.560Z,0.40
2023-03-12T22:13:14.608Z,0.30
2023-03-12T22:15:19.347Z,0.30
2023-03-12T22:17:25.228Z,0.30
2023-03-12T22:19:33.189Z,0.40
2023-03-12T22:21:35.320Z,0.50
2023-03-12T22:23:37.881Z,0.60
2023-03-12T22:25:40.059Z,0.60
2023-03-12T22:27:42.309Z,0.60
2023-03-12T22:29:44.449Z,0.60
2023-03-12T22:31:46.659Z,0.68
2023-03-12T22:33:49.314Z,0.60
2023-03-12T22:35:51.582Z,0.80
2023-03-12T22:37:54.809Z,0.50
2023-03-12T22:40:01.713Z,0.50
2023-03-12T22:42:04.173Z,0.60
2023-03-12T22:44:09.484Z,0.80
2023-03-12T22:46:12.393Z,0.80
2023-03-12T22:48:14.622Z,0.70
2023-03-12T22:50:17.176Z,0.60
2023-03-12T22:52:19.412Z,0.55
2023-03-12T22:54:21.973Z,0.60
2023-03-12T22:56:25.142Z,0.40
2023-03-12T22:58:27.865Z,0.47
2023-03-12T23:00:30.124Z,0.50
2023-03-12T23:02:32.584Z,0.60
2023-03-12T23:04:34.943Z,0.50
2023-03-12T23:06:37.178Z,0.70
2023-03-12T23:08:39.744Z,0.40
2023-03-12T23:10:41.948Z,0.77
2023-03-12T23:12:44.184Z,0.60
2023-03-12T23:14:46.432Z,0.70
2023-03-12T23:16:48.856Z,0.70
2023-03-12T23:18:51.864Z,0.90
2023-03-12T23:20:57.941Z,1.10
2023-03-12T23:23:00.184Z,1.30
2023-03-12T23:25:02.606Z,1.08
2023-03-12T23:27:05.851Z,1.10
2023-03-12T23:29:09.118Z,1.23
2023-03-12T23:31:11.604Z,1.45
2023-03-12T23:33:13.904Z,1.17
2023-03-12T23:35:16.506Z,1.60
2023-03-12T23:37:18.973Z,1.88
2023-03-12T23:39:21.305Z,2.03
2023-03-12T23:41:27.422Z,2.22
2023-03-12T23:43:30.007Z,1.95
2023-03-12T23:45:32.294Z,1.83
2023-03-12T23:47:34.477Z,1.95
2023-03-12T23:49:36.665Z,2.50
2023-03-12T23:51:41.018Z,2.40
2023-03-12T23:53:45.277Z,3.00
2023-03-12T23:55:53.748Z,2.53
2023-03-12T23:57:55.906Z,2.05
2023-03-12T23:59:58.098Z,2.10
